createdAt,value
2023-01-19T00:02:09.472Z,100097.47
2023-01-19T00:05:31.263Z,100102.16
2023-01-19T00:08:53.007Z,100112.72
2023-01-19T00:12:16.334Z,100106.63
2023-01-19T00:15:38.285Z,100105.91
2023-01-19T00:19:00.124Z,100110.22
2023-01-19T00:22:22.044Z,100112.91
2023-01-19T00:25:44.249Z,100106.00
2023-01-19T00:29:07.819Z,100119.31
2023-01-19T00:32:29.582Z,100114.38
2023-01-19T00:35:52.690Z,100119.75
2023-01-19T00:39:14.586Z,100118.97
2023-01-19T00:42:41.346Z,100128.63
2023-01-19T00:46:04.455Z,100131.38
2023-01-19T00:49:26.477Z,100138.47
2023-01-19T00:52:48.043Z,100149.94
2023-01-19T00:56:09.839Z,100144.88
2023-01-19T00:59:31.120Z,100146.69
2023-01-19T01:02:54.674Z,100152.16
2023-01-19T01:06:16.515Z,100149.56
2023-01-19T01:09:38.270Z,100156.38
2023-01-19T01:13:00.027Z,100151.31
2023-01-19T01:16:41.572Z,100152.47
2023-01-19T01:20:05.606Z,100151.69
2023-01-19T01:23:27.080Z,100163.84
2023-01-19T01:26:48.815Z,100170.19
2023-01-19T01:30:12.880Z,100175.53
2023-01-19T01:33:41.113Z,100172.06
2023-01-19T01:37:06.018Z,100166.06
2023-01-19T01:40:28.482Z,100173.88
2023-01-19T01:43:51.642Z,100176.47
2023-01-19T01:47:13.571Z,100174.66
2023-01-19T01:50:38.979Z,100179.97
2023-01-19T01:54:12.719Z,100181.56
2023-01-19T01:57:38.019Z,100177.22
2023-01-19T02:01:16.847Z,100180.75
2023-01-19T02:04:39.467Z,100191.09
2023-01-19T02:08:21.877Z,100183.34
2023-01-19T02:12:02.401Z,100184.31
2023-01-19T02:15:24.062Z,100179.09
2023-01-19T02:18:46.233Z,100175.66
2023-01-19T02:22:13.915Z,100175.69
2023-01-19T02:25:36.847Z,100170.47
2023-01-19T02:29:01.293Z,100181.00
2023-01-19T02:32:23.203Z,100176.78
2023-01-19T02:35:46.806Z,100167.34
2023-01-19T02:39:10.858Z,100168.16
2023-01-19T02:42:38.183Z,100170.84
2023-01-19T02:46:00.237Z,100164.06
2023-01-19T02:49:21.895Z,100165.94
2023-01-19T02:52:43.883Z,100167.81
2023-01-19T02:56:18.735Z,100163.56
2023-01-19T02:59:54.746Z,100166.34
2023-01-19T03:03:27.253Z,100162.91
2023-01-19T03:06:53.609Z,100169.94
2023-01-19T03:10:21.523Z,100173.38
2023-01-19T03:13:48.394Z,100170.97
2023-01-19T03:17:13.801Z,100187.53
2023-01-19T03:20:35.478Z,100182.34
2023-01-19T03:24:01.896Z,100177.00
2023-01-19T03:27:27.261Z,100180.53
2023-01-19T03:30:55.568Z,100170.09
2023-01-19T03:34:22.080Z,100163.94
2023-01-19T03:37:46.043Z,100176.06
2023-01-19T03:41:12.586Z,100169.16
2023-01-19T03:44:38.415Z,100169.38
2023-01-19T03:48:00.871Z,100175.50
2023-01-19T03:51:23.768Z,100185.06
2023-01-19T03:54:45.358Z,100192.25
2023-01-19T03:58:06.983Z,100188.81
2023-01-19T04:01:28.806Z,100194.94
2023-01-19T04:04:50.507Z,100200.25
2023-01-19T04:08:14.008Z,100199.50
2023-01-19T04:11:36.021Z,100203.09
2023-01-19T04:14:57.542Z,100197.91
2023-01-19T04:18:19.614Z,100205.84
2023-01-19T04:21:41.171Z,100192.72
2023-01-19T04:25:04.500Z,100203.88
2023-01-19T04:28:26.590Z,100201.38
2023-01-19T04:31:48.140Z,100202.28
2023-01-19T04:35:10.418Z,100203.13
2023-01-19T04:38:32.244Z,100204.94
2023-01-19T04:41:56.277Z,100201.31
2023-01-19T04:45:18.565Z,100199.50
2023-01-19T04:48:41.326Z,100202.09
2023-01-19T04:52:04.167Z,100208.22
2023-01-19T04:55:26.055Z,100210.78
2023-01-19T04:58:48.742Z,100202.00
2023-01-19T05:02:11.682Z,100208.22
2023-01-19T05:05:34.148Z,100208.22
2023-01-19T05:08:55.577Z,100198.56
2023-01-19T05:12:17.656Z,100195.16
2023-01-19T05:15:40.799Z,100195.19
2023-01-19T05:19:02.666Z,100198.59
2023-01-19T05:22:24.532Z,100203.88
2023-01-19T05:25:46.581Z,100194.41
2023-01-19T05:29:08.179Z,100190.22
2023-01-19T05:32:31.154Z,100194.66
2023-01-19T05:35:53.236Z,100189.31
2023-01-19T05:39:14.973Z,100182.25
2023-01-19T05:42:37.725Z,100179.41
2023-01-19T05:45:59.166Z,100179.88
2023-01-19T05:49:22.324Z,100192.59
2023-01-19T05:52:44.619Z,100202.63
2023-01-19T05:56:10.529Z,100204.66
2023-01-19T05:59:32.474Z,100214.75
2023-01-19T06:02:54.128Z,100229.13
2023-01-19T06:06:17.382Z,100225.31
2023-01-19T06:09:39.304Z,100229.41
2023-01-19T06:13:01.103Z,100232.69
2023-01-19T06:16:22.988Z,100236.06
2023-01-19T06:19:44.670Z,100242.78
2023-01-19T06:23:07.612Z,100239.00
2023-01-19T06:26:29.291Z,100233.56
2023-01-19T06:29:50.712Z,100251.75
2023-01-19T06:33:12.550Z,100254.16
2023-01-19T06:36:34.591Z,100267.03
2023-01-19T06:39:57.885Z,100261.69
2023-01-19T06:43:20.352Z,100258.03
2023-01-19T06:46:42.455Z,100256.16
2023-01-19T06:50:04.278Z,100251.84
2023-01-19T06:53:27.967Z,100259.53
2023-01-19T06:56:50.812Z,100251.72
2023-01-19T07:00:14.896Z,100264.69
2023-01-19T07:03:38.483Z,100270.75
2023-01-19T07:07:00.197Z,100262.03
2023-01-19T07:10:22.497Z,100266.31
2023-01-19T07:13:51.416Z,100269.91
2023-01-19T07:17:13.904Z,100273.50
2023-01-19T07:20:36.018Z,100275.19
2023-01-19T07:23:57.882Z,100270.75
2023-01-19T07:27:19.526Z,100276.78
2023-01-19T07:30:43.492Z,100281.06
2023-01-19T07:34:05.487Z,100286.31
2023-01-19T07:37:26.806Z,100285.38
2023-01-19T07:40:48.558Z,100287.09
2023-01-19T07:44:10.386Z,100277.47
2023-01-19T07:47:33.334Z,100292.19
2023-01-19T07:51:00.394Z,100297.28
2023-01-19T07:54:21.974Z,100296.34
2023-01-19T07:57:44.097Z,100298.72
2023-01-19T08:01:08.006Z,100309.94
2023-01-19T08:04:31.098Z,100299.44
2023-01-19T08:07:54.196Z,100301.13
2023-01-19T08:11:15.914Z,100303.66
2023-01-19T08:14:38.194Z,100316.50
2023-01-19T08:18:01.335Z,100307.75
2023-01-19T08:21:24.340Z,100314.66
2023-01-19T08:24:46.114Z,100319.69
2023-01-19T08:28:08.406Z,100316.03
2023-01-19T08:31:30.821Z,100324.59
2023-01-19T08:34:53.236Z,100326.28
2023-01-19T08:38:17.143Z,100327.06
2023-01-19T08:41:38.783Z,100327.84
2023-01-19T08:45:00.693Z,100320.78
2023-01-19T08:48:24.239Z,100319.84
2023-01-19T08:51:47.360Z,100328.38
2023-01-19T08:55:11.862Z,100323.78
2023-01-19T08:58:33.784Z,100328.00
2023-01-19T09:01:55.873Z,100333.09
2023-01-19T09:05:18.083Z,100336.47
2023-01-19T09:08:39.735Z,100338.19
2023-01-19T09:12:02.527Z,100351.03
2023-01-19T09:15:24.370Z,100343.06
2023-01-19T09:18:46.258Z,100344.63
2023-01-19T09:22:07.999Z,100361.03
2023-01-19T09:25:29.916Z,100354.69
2023-01-19T09:28:53.025Z,100349.31
2023-01-19T09:32:14.680Z,100354.13
2023-01-19T09:35:36.941Z,100354.00
2023-01-19T09:38:59.040Z,100351.25
2023-01-19T09:42:28.050Z,100353.53
2023-01-19T09:45:53.313Z,100351.63
2023-01-19T09:49:17.193Z,100346.94
2023-01-19T09:52:42.385Z,100344.97
2023-01-19T09:56:03.802Z,100336.06
2023-01-19T09:59:26.826Z,100332.41
2023-01-19T10:02:54.200Z,100332.19
2023-01-19T10:06:17.399Z,100328.44
2023-01-19T10:09:50.548Z,100328.28
2023-01-19T10:13:23.887Z,100330.56
2023-01-19T10:16:54.172Z,100325.09
2023-01-19T10:20:23.991Z,100324.00
2023-01-19T10:23:49.197Z,100327.34
2023-01-19T10:27:17.943Z,100322.81
2023-01-19T10:30:42.444Z,100312.09
2023-01-19T10:34:05.228Z,100318.06
2023-01-19T10:37:33.906Z,100314.28
2023-01-19T10:41:00.637Z,100320.06
2023-01-19T10:44:27.161Z,100314.63
2023-01-19T10:47:50.268Z,100312.69
2023-01-19T10:51:12.997Z,100315.13
2023-01-19T10:54:38.432Z,100310.53
2023-01-19T10:58:01.268Z,100314.72
2023-01-19T11:01:24.919Z,100313.63
2023-01-19T11:04:50.184Z,100313.38
2023-01-19T11:08:23.923Z,100308.84
2023-01-19T11:11:50.905Z,100307.69
2023-01-19T11:15:17.317Z,100319.78
2023-01-19T11:18:40.752Z,100308.31
2023-01-19T11:22:16.377Z,100313.38
2023-01-19T11:25:38.158Z,100312.31
2023-01-19T11:29:03.089Z,100311.22
2023-01-19T11:32:26.795Z,100311.66
2023-01-19T11:35:49.904Z,100302.81
2023-01-19T11:39:23.692Z,100302.47
2023-01-19T11:42:45.710Z,100297.94
2023-01-19T11:46:12.592Z,100304.59
2023-01-19T11:49:43.400Z,100297.44
2023-01-19T11:53:08.250Z,100301.59
2023-01-19T11:56:31.255Z,100290.78
2023-01-19T11:59:52.706Z,100288.84
2023-01-19T12:03:31.903Z,100289.44
2023-01-19T12:06:56.347Z,100290.09
2023-01-19T12:10:27.012Z,100284.56
2023-01-19T12:13:49.618Z,100281.00
2023-01-19T12:17:20.419Z,100285.03
2023-01-19T12:20:46.704Z,100281.47
2023-01-19T12:24:17.119Z,100281.25
2023-01-19T12:27:41.884Z,100287.19
2023-01-19T12:31:04.977Z,100287.00
2023-01-19T12:34:36.011Z,100279.91
2023-01-19T12:37:58.837Z,100284.97
2023-01-19T12:41:28.366Z,100290.88
2023-01-19T12:44:54.438Z,100294.28
2023-01-19T12:48:26.159Z,100291.47
2023-01-19T12:51:49.403Z,100292.16
2023-01-19T12:55:24.232Z,100285.03
2023-01-19T12:58:50.142Z,100289.28
2023-01-19T13:02:43.331Z,100297.06
2023-01-19T13:06:05.275Z,100294.19
2023-01-19T13:09:30.554Z,100305.53
2023-01-19T13:13:17.624Z,100314.16
2023-01-19T13:16:59.848Z,100317.41
2023-01-19T13:20:27.454Z,100318.16
2023-01-19T13:23:54.239Z,100309.34
2023-01-19T13:27:15.930Z,100320.69
2023-01-19T13:30:51.401Z,100317.06
2023-01-19T13:34:15.595Z,100312.63
2023-01-19T13:37:41.564Z,100309.00
2023-01-19T13:41:04.246Z,100309.75
2023-01-19T13:44:28.560Z,100321.09
2023-01-19T13:47:53.577Z,100321.97
2023-01-19T13:51:19.756Z,100328.06
2023-01-19T13:54:49.275Z,100329.75
2023-01-19T13:58:22.159Z,100324.34
2023-01-19T14:01:45.802Z,100325.19
2023-01-19T14:05:15.985Z,100334.00
2023-01-19T14:08:38.672Z,100340.00
2023-01-19T14:12:14.396Z,100347.72
2023-01-19T14:15:36.007Z,100354.75
2023-01-19T14:19:02.225Z,100352.97
2023-01-19T14:22:41.467Z,100352.97
2023-01-19T14:26:03.435Z,100341.63
2023-01-19T14:29:27.658Z,100350.44
2023-01-19T14:32:49.424Z,100358.38
2023-01-19T14:36:21.230Z,100364.69
2023-01-19T14:39:47.501Z,100361.19
2023-01-19T14:43:14.674Z,100361.19
2023-01-19T14:46:36.558Z,100357.97
2023-01-19T14:50:01.738Z,100364.16
2023-01-19T14:53:27.695Z,100360.78
2023-01-19T14:56:50.312Z,100366.97
2023-01-19T15:00:17.505Z,100370.53
2023-01-19T15:03:44.840Z,100372.41
2023-01-19T15:07:07.552Z,100372.56
2023-01-19T15:10:29.034Z,100374.56
2023-01-19T15:13:52.447Z,100373.16
2023-01-19T15:17:25.212Z,100379.41
2023-01-19T15:20:46.707Z,100375.25
2023-01-19T15:24:08.205Z,100385.00
2023-01-19T15:27:30.080Z,100375.66
2023-01-19T15:30:54.139Z,100383.63
2023-01-19T15:34:15.996Z,100382.00
2023-01-19T15:37:38.189Z,100388.28
2023-01-19T15:40:59.833Z,100387.69
2023-01-19T15:44:21.623Z,100390.31
2023-01-19T15:47:45.186Z,100392.25
2023-01-19T15:51:07.254Z,100391.38
2023-01-19T15:54:28.822Z,100393.22
2023-01-19T15:57:50.169Z,100391.63
2023-01-19T16:01:14.451Z,100399.50
2023-01-19T16:04:37.579Z,100410.84
2023-01-19T16:08:01.122Z,100405.75
2023-01-19T16:11:23.136Z,100398.97
2023-01-19T16:14:44.947Z,100395.59
2023-01-19T16:18:07.180Z,100400.16
2023-01-19T16:21:29.962Z,100401.16
2023-01-19T16:24:51.245Z,100408.31
2023-01-19T16:28:13.135Z,100401.56
2023-01-19T16:31:35.261Z,100402.47
2023-01-19T16:34:56.888Z,100403.50
2023-01-19T16:38:20.053Z,100403.66
2023-01-19T16:41:42.638Z,100414.16
2023-01-19T16:45:04.197Z,100424.81
2023-01-19T16:48:26.027Z,100421.38
2023-01-19T16:51:47.729Z,100423.22
2023-01-19T16:55:12.074Z,100418.16
2023-01-19T16:58:33.531Z,100426.13
2023-01-19T17:01:55.991Z,100424.47
2023-01-19T17:05:17.550Z,100427.25
2023-01-19T17:08:40.225Z,100418.84
2023-01-19T17:12:03.285Z,100425.94
2023-01-19T17:15:24.903Z,100426.09
2023-01-19T17:18:46.204Z,100436.69
2023-01-19T17:22:08.151Z,100436.81
2023-01-19T17:25:29.642Z,100443.97
2023-01-19T17:28:53.323Z,100439.66
2023-01-19T17:32:15.241Z,100433.59
2023-01-19T17:35:37.054Z,100438.84
2023-01-19T17:39:00.174Z,100433.59
2023-01-19T17:42:21.750Z,100441.44
2023-01-19T17:45:44.297Z,100448.41
2023-01-19T17:49:07.887Z,100451.84
2023-01-19T17:52:29.687Z,100448.25
2023-01-19T17:55:50.810Z,100442.84
2023-01-19T17:59:12.626Z,100450.63
2023-01-19T18:02:35.938Z,100457.50
2023-01-19T18:05:57.529Z,100452.09
2023-01-19T18:09:20.091Z,100444.00
2023-01-19T18:12:41.906Z,100448.25
2023-01-19T18:16:05.098Z,100462.97
2023-01-19T18:19:28.047Z,100467.22
2023-01-19T18:22:50.094Z,100454.88
2023-01-19T18:26:16.895Z,100459.13
2023-01-19T18:29:38.542Z,100463.34
2023-01-19T18:33:00.525Z,100468.53
2023-01-19T18:36:24.220Z,100470.22
2023-01-19T18:39:46.318Z,100459.69
2023-01-19T18:43:08.982Z,100457.97
2023-01-19T18:46:30.917Z,100456.28
2023-01-19T18:49:52.861Z,100458.91
2023-01-19T18:53:16.541Z,100465.84
2023-01-19T18:56:38.099Z,100464.16
2023-01-19T18:59:59.829Z,100472.03
2023-01-19T19:03:22.179Z,100486.03
2023-01-19T19:06:44.526Z,100485.19
2023-01-19T19:10:09.418Z,100477.53
2023-01-19T19:13:30.909Z,100487.97
2023-01-19T19:16:52.560Z,100498.53
2023-01-19T19:20:14.994Z,100497.59
2023-01-19T19:23:37.701Z,100507.16
2023-01-19T19:27:01.017Z,100515.97
2023-01-19T19:30:22.826Z,100523.84
2023-01-19T19:33:45.133Z,100525.69
2023-01-19T19:37:07.142Z,100538.88
2023-01-19T19:40:29.409Z,100527.38
2023-01-19T19:43:52.382Z,100540.50
2023-01-19T19:47:14.193Z,100542.34
2023-01-19T19:50:35.895Z,100540.75
2023-01-19T19:54:00.322Z,100545.13
2023-01-19T19:57:21.911Z,100553.84
2023-01-19T20:00:45.889Z,100552.16
2023-01-19T20:04:10.024Z,100560.84
2023-01-19T20:07:31.767Z,100561.72
2023-01-19T20:10:53.434Z,100559.88
2023-01-19T20:14:16.294Z,100564.09
2023-01-19T20:17:39.209Z,100575.38
2023-01-19T20:21:01.577Z,100563.94
2023-01-19T20:24:23.328Z,100565.66
2023-01-19T20:27:45.088Z,100564.66
2023-01-19T20:31:14.788Z,100573.25
2023-01-19T20:34:39.865Z,100580.19
2023-01-19T20:38:02.109Z,100583.50
2023-01-19T20:41:24.603Z,100585.91
2023-01-19T20:44:46.123Z,100597.88
2023-01-19T20:48:08.030Z,100597.78
2023-01-19T20:51:30.957Z,100596.03
2023-01-19T20:54:53.213Z,100611.63
2023-01-19T20:58:14.931Z,100594.88
2023-01-19T21:01:37.592Z,100602.69
2023-01-19T21:04:59.372Z,100597.34
2023-01-19T21:08:22.453Z,100600.56
2023-01-19T21:11:44.466Z,100611.00
2023-01-19T21:15:07.598Z,100613.69
2023-01-19T21:18:29.603Z,100621.44
2023-01-19T21:21:51.315Z,100631.94
2023-01-19T21:25:14.703Z,100627.53
2023-01-19T21:28:36.638Z,100630.09
2023-01-19T21:31:58.969Z,100634.25
2023-01-19T21:35:20.697Z,100633.34
2023-01-19T21:38:42.482Z,100628.00
2023-01-19T21:42:05.246Z,100634.94
2023-01-19T21:45:26.699Z,100646.16
2023-01-19T21:48:48.926Z,100640.03
2023-01-19T21:52:10.806Z,100653.09
2023-01-19T21:55:32.009Z,100661.75
2023-01-19T21:58:55.790Z,100660.06
2023-01-19T22:02:29.894Z,100660.88
2023-01-19T22:06:04.832Z,100665.31
2023-01-19T22:09:26.656Z,100669.69
2023-01-19T22:12:47.974Z,100681.28
2023-01-19T22:16:13.927Z,100683.84
2023-01-19T22:19:35.206Z,100682.91
2023-01-19T22:22:56.902Z,100685.53
2023-01-19T22:26:18.321Z,100701.34
2023-01-19T22:29:39.993Z,100705.75
2023-01-19T22:33:02.589Z,100705.00
2023-01-19T22:36:25.542Z,100712.00
2023-01-19T22:39:47.568Z,100718.94
2023-01-19T22:43:09.269Z,100714.56
2023-01-19T22:46:33.311Z,100718.88
2023-01-19T22:49:56.521Z,100723.22
2023-01-19T22:53:18.297Z,100722.28
2023-01-19T22:56:40.888Z,100719.66
2023-01-19T23:00:02.503Z,100729.16
2023-01-19T23:03:24.171Z,100730.03
2023-01-19T23:06:50.476Z,100729.94
2023-01-19T23:10:12.731Z,100736.97
2023-01-19T23:13:34.755Z,100736.09
2023-01-19T23:16:56.275Z,100735.28
2023-01-19T23:20:18.115Z,100741.44
2023-01-19T23:23:41.375Z,100743.28
2023-01-19T23:27:03.000Z,100745.16
2023-01-19T23:30:24.322Z,100741.75
2023-01-19T23:33:46.299Z,100753.16
2023-01-19T23:37:07.717Z,100747.91
2023-01-19T23:40:30.988Z,100751.38
2023-01-19T23:43:53.490Z,100754.88
2023-01-19T23:47:15.002Z,100757.41
2023-01-19T23:50:39.899Z,100766.16
2023-01-19T23:54:02.188Z,100761.72
2023-01-19T23:57:25.111Z,100765.22
